createdAt,value
2022-10-28T00:03:02.539Z,2.47
2022-10-28T00:08:04.498Z,3.03
2022-10-28T00:13:06.235Z,2.72
2022-10-28T00:18:08.107Z,3.13
2022-10-28T00:23:09.816Z,2.75
2022-10-28T00:28:11.520Z,3.45
2022-10-28T00:33:13.222Z,3.05
2022-10-28T00:38:14.926Z,3.00
2022-10-28T00:43:16.676Z,2.35
2022-10-28T00:48:18.896Z,3.17
2022-10-28T00:53:26.566Z,3.38
2022-10-28T00:58:29.330Z,2.83
2022-10-28T01:03:31.335Z,3.25
2022-10-28T01:08:33.262Z,2.75
2022-10-28T01:13:40.842Z,3.97
2022-10-28T01:18:45.355Z,3.42
2022-10-28T01:24:11.194Z,2.78
2022-10-28T01:29:35.679Z,2.70
2022-10-28T01:35:01.098Z,2.60
2022-10-28T01:40:46.709Z,3.40
2022-10-28T01:45:57.861Z,3.25
2022-10-28T01:51:08.378Z,3.25
2022-10-28T01:56:16.264Z,3.10
2022-10-28T02:01:19.290Z,2.47
2022-10-28T02:06:23.955Z,3.10
2022-10-28T02:11:43.173Z,3.55
2022-10-28T02:17:21.086Z,3.20
2022-10-28T02:22:40.731Z,3.57
2022-10-28T02:28:06.346Z,3.50
2022-10-28T02:33:12.710Z,2.63
2022-10-28T02:38:19.738Z,3.50
2022-10-28T02:43:23.585Z,3.03
2022-10-28T02:48:40.032Z,3.30
2022-10-28T02:53:51.756Z,3.03
2022-10-28T02:58:53.540Z,3.03
2022-10-28T03:03:55.393Z,3.10
2022-10-28T03:08:57.257Z,2.95
2022-10-28T03:13:58.961Z,2.88
2022-10-28T03:19:01.400Z,2.50
2022-10-28T03:24:03.193Z,2.85
2022-10-28T03:29:04.959Z,3.20
2022-10-28T03:34:06.769Z,2.90
2022-10-28T03:39:08.533Z,3.25
2022-10-28T03:44:10.342Z,3.28
2022-10-28T03:49:12.393Z,2.65
2022-10-28T03:54:14.126Z,3.30
2022-10-28T03:59:19.255Z,2.72
2022-10-28T04:04:22.089Z,2.85
2022-10-28T04:09:23.827Z,2.80
2022-10-28T04:14:25.562Z,3.70
2022-10-28T04:19:27.483Z,3.67
2022-10-28T04:24:29.210Z,3.70
2022-10-28T04:29:33.093Z,4.80
2022-10-28T04:34:34.899Z,4.63
2022-10-28T04:39:36.683Z,4.95
2022-10-28T04:44:38.455Z,5.07
2022-10-28T04:49:40.196Z,4.05
2022-10-28T04:54:42.125Z,3.67
2022-10-28T04:59:43.937Z,3.08
2022-10-28T05:04:45.692Z,3.10
2022-10-28T05:09:47.414Z,3.50
2022-10-28T05:14:51.252Z,3.55
2022-10-28T05:19:54.907Z,2.97
2022-10-28T05:24:56.662Z,3.20
2022-10-28T05:29:58.422Z,3.65
2022-10-28T05:35:00.186Z,3.65
2022-10-28T05:40:02.037Z,4.05
2022-10-28T05:45:04.158Z,5.15
2022-10-28T05:50:06.243Z,4.60
2022-10-28T05:55:08.269Z,4.55
2022-10-28T06:00:10.819Z,4.72
2022-10-28T06:05:15.628Z,5.50
2022-10-28T06:10:17.490Z,6.60
2022-10-28T06:15:17.687Z,5.40
2022-10-28T06:20:19.706Z,4.75
2022-10-28T06:25:22.517Z,4.40
2022-10-28T06:30:25.871Z,4.18
2022-10-28T06:35:27.646Z,3.97
2022-10-28T06:40:29.426Z,4.75
2022-10-28T06:45:33.659Z,4.78
2022-10-28T06:50:38.304Z,4.03
2022-10-28T06:55:40.061Z,4.28
2022-10-28T07:00:41.777Z,3.75
2022-10-28T07:05:43.572Z,3.95
2022-10-28T07:10:52.700Z,3.80
2022-10-28T07:15:55.926Z,4.20
2022-10-28T07:21:01.910Z,4.10
2022-10-28T07:26:03.799Z,3.95
2022-10-28T07:31:05.725Z,4.28
2022-10-28T07:36:07.860Z,3.90
2022-10-28T07:41:10.536Z,3.58
2022-10-28T07:46:12.265Z,4.20
2022-10-28T07:51:15.227Z,5.45
2022-10-28T07:56:17.103Z,4.28
2022-10-28T08:01:20.863Z,4.15
2022-10-28T08:06:22.699Z,3.90
2022-10-28T08:11:24.870Z,5.40
2022-10-28T08:16:28.994Z,5.75
2022-10-28T08:21:30.803Z,5.63
2022-10-28T08:26:32.524Z,5.95
2022-10-28T08:31:34.599Z,6.50
2022-10-28T08:36:36.517Z,6.07
2022-10-28T08:41:52.569Z,9.52
2022-10-28T08:47:15.392Z,5.45
2022-10-28T08:52:33.014Z,7.50
2022-10-28T08:57:39.403Z,7.43
2022-10-28T09:02:50.704Z,6.30
2022-10-28T09:07:55.885Z,6.45
2022-10-28T09:13:17.411Z,6.18
2022-10-28T09:18:29.461Z,6.10
2022-10-28T09:23:37.515Z,5.13
2022-10-28T09:34:21.740Z,5.35
2022-10-28T09:39:29.450Z,5.20
2022-10-28T09:44:39.215Z,5.22
2022-10-28T09:49:42.006Z,5.10
2022-10-28T09:54:51.881Z,5.45
2022-10-28T09:59:54.422Z,5.07
2022-10-28T10:05:02.240Z,5.72
2022-10-28T10:10:24.907Z,5.10
2022-10-28T10:15:36.171Z,4.90
2022-10-28T10:21:01.648Z,5.30
2022-10-28T10:26:12.537Z,7.35
2022-10-28T10:31:27.670Z,6.13
2022-10-28T10:36:35.481Z,5.75
2022-10-28T10:41:43.792Z,5.75
2022-10-28T10:46:47.076Z,6.10
2022-10-28T10:51:54.284Z,6.30
2022-10-28T10:57:20.736Z,7.37
2022-10-28T11:02:36.704Z,5.60
2022-10-28T11:07:46.282Z,6.28
2022-10-28T11:12:56.589Z,5.22
2022-10-28T11:18:17.354Z,5.07
2022-10-28T11:23:46.523Z,5.57
2022-10-28T11:29:08.754Z,6.20
2022-10-28T11:34:35.764Z,5.50
2022-10-28T11:40:08.283Z,6.05
2022-10-28T11:45:37.313Z,5.10
2022-10-28T11:50:44.786Z,4.93
2022-10-28T11:56:04.690Z,5.50
2022-10-28T12:01:22.337Z,5.07
2022-10-28T12:06:55.288Z,4.93
2022-10-28T12:12:16.845Z,5.90
2022-10-28T12:17:58.534Z,7.22
2022-10-28T12:23:38.881Z,4.82
2022-10-28T12:28:52.395Z,3.80
2022-10-28T12:34:02.407Z,3.70
2022-10-28T12:39:15.882Z,4.05
2022-10-28T12:44:21.694Z,4.53
2022-10-28T12:49:52.406Z,4.00
2022-10-28T13:00:33.370Z,3.58
2022-10-28T13:05:41.833Z,3.70
2022-10-28T13:10:55.973Z,3.33
2022-10-28T13:16:01.099Z,3.70
2022-10-28T13:21:09.929Z,3.50
2022-10-28T13:26:28.769Z,3.72
2022-10-28T13:31:46.963Z,3.25
2022-10-28T13:37:03.808Z,3.20
2022-10-28T13:42:15.060Z,4.10
2022-10-28T13:47:17.185Z,3.47
2022-10-28T13:52:21.165Z,3.47
2022-10-28T13:57:33.244Z,3.17
2022-10-28T14:03:07.158Z,4.05
2022-10-28T14:08:34.779Z,3.88
2022-10-28T14:14:02.677Z,3.42
2022-10-28T14:19:11.737Z,3.53
2022-10-28T14:24:37.134Z,3.47
2022-10-28T14:29:57.688Z,3.15
2022-10-28T14:35:04.087Z,3.60
2022-10-28T14:40:19.809Z,3.80
2022-10-28T14:45:40.763Z,3.85
2022-10-28T14:50:50.271Z,3.75
2022-10-28T14:56:05.961Z,3.40
2022-10-28T15:01:18.381Z,3.50
2022-10-28T15:06:39.698Z,3.47
2022-10-28T15:11:45.493Z,3.28
2022-10-28T15:16:49.799Z,3.35
2022-10-28T15:22:06.861Z,3.10
2022-10-28T15:27:13.898Z,3.33
2022-10-28T15:32:22.493Z,3.70
2022-10-28T15:37:30.477Z,3.90
2022-10-28T15:43:04.743Z,4.20
2022-10-28T15:48:16.822Z,3.58
2022-10-28T15:53:37.535Z,3.17
2022-10-28T15:58:44.037Z,2.70
2022-10-28T16:03:48.185Z,2.80
2022-10-28T16:09:09.377Z,3.13
2022-10-28T16:14:38.390Z,2.83
2022-10-28T16:19:43.289Z,4.07
2022-10-28T16:24:45.720Z,4.00
2022-10-28T16:29:48.001Z,3.70
2022-10-28T16:34:49.793Z,3.75
2022-10-28T16:39:52.004Z,2.72
2022-10-28T16:44:53.787Z,2.63
2022-10-28T16:49:57.646Z,2.80
2022-10-28T16:55:00.969Z,2.80
2022-10-28T17:00:02.840Z,3.22
2022-10-28T17:05:05.096Z,3.13
2022-10-28T17:10:07.656Z,3.45
2022-10-28T17:15:10.212Z,3.67
2022-10-28T17:20:12.090Z,3.70
2022-10-28T17:25:13.920Z,3.28
2022-10-28T17:30:17.366Z,3.83
2022-10-28T17:35:20.796Z,3.92
2022-10-28T17:40:22.568Z,3.95
2022-10-28T17:45:24.301Z,3.80
2022-10-28T17:50:26.071Z,3.90
2022-10-28T17:55:27.963Z,4.47
2022-10-28T18:00:29.721Z,3.40
2022-10-28T18:05:31.472Z,3.97
2022-10-28T18:10:33.334Z,3.13
2022-10-28T18:15:37.088Z,3.55
2022-10-28T18:20:38.812Z,3.00
2022-10-28T18:25:40.673Z,3.65
2022-10-28T18:30:42.458Z,3.70
2022-10-28T18:40:53.047Z,4.85
2022-10-28T18:45:59.808Z,4.70
2022-10-28T18:51:06.568Z,3.50
2022-10-28T18:56:14.897Z,3.20
2022-10-28T19:01:19.649Z,4.00
2022-10-28T19:06:22.503Z,3.50
2022-10-28T19:11:29.878Z,3.03
2022-10-28T19:16:33.737Z,3.80
2022-10-28T19:21:35.655Z,2.72
2022-10-28T19:26:39.251Z,3.80
2022-10-28T19:31:41.862Z,3.20
2022-10-28T19:36:43.633Z,2.50
2022-10-28T19:41:45.537Z,2.75
2022-10-28T19:46:47.257Z,3.00
2022-10-28T19:51:48.992Z,2.70
2022-10-28T19:56:51.054Z,3.33
2022-10-28T20:01:52.826Z,3.53
2022-10-28T20:06:54.624Z,3.38
2022-10-28T20:11:56.392Z,4.00
2022-10-28T20:17:04.014Z,3.42
2022-10-28T20:22:08.474Z,3.95
2022-10-28T20:27:10.327Z,2.97
2022-10-28T20:32:12.105Z,2.40
2022-10-28T20:37:13.819Z,3.10
2022-10-28T20:42:15.561Z,2.72
2022-10-28T20:47:17.723Z,2.85
2022-10-28T20:52:20.211Z,3.47
2022-10-28T20:57:22.104Z,3.10
2022-10-28T21:02:24.012Z,1.88
2022-10-28T21:07:25.860Z,1.80
2022-10-28T21:12:27.703Z,2.00
2022-10-28T21:17:29.517Z,2.40
2022-10-28T21:22:32.351Z,1.85
2022-10-28T21:27:34.276Z,3.00
2022-10-28T21:32:37.226Z,2.25
2022-10-28T21:37:39.033Z,2.78
2022-10-28T21:42:40.928Z,2.17
2022-10-28T21:47:42.706Z,2.17
2022-10-28T21:52:44.479Z,2.47
2022-10-28T21:57:46.270Z,2.17
2022-10-28T22:02:48.478Z,2.22
2022-10-28T22:07:50.560Z,2.85
2022-10-28T22:12:52.283Z,2.58
2022-10-28T22:17:54.848Z,2.50
2022-10-28T22:22:57.122Z,2.30
2022-10-28T22:27:59.129Z,1.92
2022-10-28T22:33:00.937Z,1.88
2022-10-28T22:38:02.755Z,2.33
2022-10-28T22:43:04.477Z,2.80
2022-10-28T22:48:06.724Z,2.60
2022-10-28T22:53:08.441Z,3.25
2022-10-28T22:58:10.544Z,2.95
2022-10-28T23:03:12.937Z,3.28
2022-10-28T23:08:16.081Z,2.72
2022-10-28T23:13:17.918Z,3.03
2022-10-28T23:18:19.965Z,3.50
2022-10-28T23:23:21.731Z,2.78
2022-10-28T23:28:24.532Z,2.72
2022-10-28T23:33:27.700Z,3.22
2022-10-28T23:38:29.780Z,3.00
2022-10-28T23:43:32.128Z,2.65
2022-10-28T23:48:33.880Z,3.08
2022-10-28T23:53:35.622Z,2.97
2022-10-28T23:58:37.367Z,2.70
